KQA510 HKJK-DGAA
Flight info
| Callsign | KQA510 |
|---|---|
| Flight time | N/A |
| Altitude | 36000 |
| Route | NAKAT4B NAKAT UL433 NN UL434 AGVIR/N0454F380 UL434 NLY/N0449F400 UR984 DLA UP685 ARDEX UA601 TYE/N0395F240 L433 EREKA EREKA1B |
| Aircraft | B738/M-SDE2E3FGHIRWXY/LB1 |
Departure
| Time | 2026-04-27 06:35 |
|---|---|
| Airport | Jomo Kenyatta International Airport (HKJK) |
Arrival
| Time | N/A |
|---|---|
| Airport | Kotoka International Airport (DGAA) |
| Time | Latitude | Longitude | Altitude | Speed | Heading |
|---|---|---|---|---|---|
| 2026-04-27 06:13 | -1.32868 | 36.92420 | 5336 ft | 0 kts | 156° |
| 2026-04-27 06:23 | -1.32858 | 36.92415 | 5336 ft | 2 kts | 156° |
| 2026-04-27 06:23 | -1.32841 | 36.92407 | 5336 ft | 3 kts | 156° |
| 2026-04-27 06:23 | -1.32822 | 36.92399 | 5336 ft | 3 kts | 156° |
| 2026-04-27 06:24 | -1.32808 | 36.92393 | 5336 ft | 0 kts | 151° |
| 2026-04-27 06:24 | -1.32798 | 36.92388 | 5336 ft | 2 kts | 151° |
| 2026-04-27 06:24 | -1.32794 | 36.92385 | 5336 ft | 0 kts | 148° |
| 2026-04-27 06:28 | -1.32802 | 36.92389 | 5336 ft | 1 kts | 145° |
| 2026-04-27 06:28 | -1.32797 | 36.92409 | 5336 ft | 4 kts | 28° |
| 2026-04-27 06:28 | -1.32762 | 36.92403 | 5336 ft | 7 kts | 331° |
| 2026-04-27 06:28 | -1.32737 | 36.92387 | 5336 ft | 2 kts | 325° |
| 2026-04-27 06:29 | -1.32722 | 36.92377 | 5336 ft | 1 kts | 324° |
| 2026-04-27 06:29 | -1.32721 | 36.92376 | 5336 ft | 1 kts | 324° |
| 2026-04-27 06:29 | -1.32707 | 36.92366 | 5336 ft | 4 kts | 323° |
| 2026-04-27 06:29 | -1.32683 | 36.92337 | 5336 ft | 7 kts | 292° |
| 2026-04-27 06:30 | -1.32690 | 36.92289 | 5336 ft | 8 kts | 238° |
| 2026-04-27 06:30 | -1.32738 | 36.92222 | 5336 ft | 13 kts | 232° |
| 2026-04-27 06:30 | -1.32798 | 36.92143 | 5336 ft | 18 kts | 233° |
| 2026-04-27 06:30 | -1.32866 | 36.92049 | 5336 ft | 16 kts | 235° |
| 2026-04-27 06:31 | -1.32934 | 36.91955 | 5336 ft | 18 kts | 234° |
| 2026-04-27 06:31 | -1.32992 | 36.91875 | 5336 ft | 12 kts | 240° |
| 2026-04-27 06:31 | -1.32967 | 36.91799 | 5336 ft | 17 kts | 323° |
| 2026-04-27 06:31 | -1.32862 | 36.91723 | 5336 ft | 12 kts | 324° |
| 2026-04-27 06:32 | -1.32844 | 36.91711 | 5336 ft | 0 kts | 324° |
| 2026-04-27 06:32 | -1.32844 | 36.91710 | 5336 ft | 0 kts | 324° |
| 2026-04-27 06:33 | -1.32815 | 36.91689 | 5336 ft | 11 kts | 323° |
| 2026-04-27 06:33 | -1.32750 | 36.91664 | 5336 ft | 7 kts | 12° |
| 2026-04-27 06:34 | -1.32736 | 36.91672 | 5336 ft | 0 kts | 41° |
| 2026-04-27 06:34 | -1.32723 | 36.91686 | 5336 ft | 18 kts | 49° |
| 2026-04-27 06:34 | -1.32521 | 36.91961 | 5336 ft | 79 kts | 52° |
| 2026-04-27 06:34 | -1.32089 | 36.92561 | 5336 ft | 132 kts | 55° |
| 2026-04-27 06:35 | -1.31450 | 36.93432 | 5342 ft | 177 kts | 51° |
| 2026-04-27 06:35 | -1.30712 | 36.94490 | 5697 ft | 191 kts | 56° |
| 2026-04-27 06:35 | -1.29972 | 36.95608 | 6285 ft | 197 kts | 55° |
| 2026-04-27 06:35 | -1.29117 | 36.96683 | 6984 ft | 199 kts | 54° |
| 2026-04-27 06:36 | -1.28171 | 36.97750 | 7528 ft | 209 kts | 53° |
| 2026-04-27 06:36 | -1.27180 | 36.98818 | 8152 ft | 212 kts | 53° |
| 2026-04-27 06:36 | -1.26156 | 36.99940 | 8630 ft | 224 kts | 53° |
| 2026-04-27 06:36 | -1.25165 | 37.01234 | 8952 ft | 246 kts | 54° |
| 2026-04-27 06:37 | -1.24134 | 37.02674 | 9310 ft | 264 kts | 53° |
| 2026-04-27 06:37 | -1.23027 | 37.04220 | 9661 ft | 284 kts | 53° |
| 2026-04-27 06:37 | -1.21840 | 37.05881 | 10066 ft | 300 kts | 53° |
| 2026-04-27 06:37 | -1.20363 | 37.07363 | 10635 ft | 304 kts | 32° |
| 2026-04-27 06:38 | -1.18444 | 37.08235 | 11006 ft | 314 kts | 11° |
| 2026-04-27 06:38 | -1.16232 | 37.08378 | 11292 ft | 326 kts | 349° |
| 2026-04-27 06:38 | -1.14046 | 37.07707 | 11610 ft | 335 kts | 329° |
| 2026-04-27 06:38 | -1.12204 | 37.06278 | 12186 ft | 336 kts | 310° |
| 2026-04-27 06:39 | -1.10972 | 37.04303 | 12886 ft | 336 kts | 292° |
| 2026-04-27 06:39 | -1.10164 | 37.02103 | 13565 ft | 339 kts | 281° |
| 2026-04-27 06:39 | -1.10174 | 36.99774 | 14377 ft | 340 kts | 261° |
| 2026-04-27 06:39 | -1.10817 | 36.97474 | 15127 ft | 344 kts | 251° |
| 2026-04-27 06:40 | -1.11722 | 36.95239 | 15721 ft | 350 kts | 249° |
| 2026-04-27 06:40 | -1.12630 | 36.92969 | 16333 ft | 353 kts | 250° |
| 2026-04-27 06:40 | -1.13514 | 36.90691 | 16944 ft | 356 kts | 252° |
| 2026-04-27 06:40 | -1.14120 | 36.88285 | 17547 ft | 359 kts | 261° |
| 2026-04-27 06:41 | -1.14393 | 36.85801 | 18135 ft | 362 kts | 268° |
| 2026-04-27 06:41 | -1.14369 | 36.83267 | 18715 ft | 365 kts | 272° |
| 2026-04-27 06:41 | -1.14279 | 36.80726 | 19279 ft | 368 kts | 273° |
| 2026-04-27 06:41 | -1.14039 | 36.78169 | 19832 ft | 371 kts | 277° |
| 2026-04-27 06:42 | -1.13711 | 36.75590 | 20365 ft | 374 kts | 277° |
| 2026-04-27 06:42 | -1.13355 | 36.73029 | 20879 ft | 378 kts | 279° |
| 2026-04-27 06:42 | -1.12850 | 36.70440 | 21381 ft | 381 kts | 279° |
| 2026-04-27 06:42 | -1.12346 | 36.67826 | 21877 ft | 384 kts | 282° |
| 2026-04-27 06:43 | -1.11764 | 36.65209 | 22355 ft | 387 kts | 282° |
| 2026-04-27 06:43 | -1.11178 | 36.62573 | 22823 ft | 390 kts | 282° |
| 2026-04-27 06:43 | -1.10734 | 36.60575 | 23163 ft | 392 kts | 282° |
| 2026-04-27 06:43 | -1.10140 | 36.57899 | 23612 ft | 395 kts | 282° |
| 2026-04-27 06:44 | -1.09543 | 36.55214 | 24044 ft | 398 kts | 282° |
| 2026-04-27 06:44 | -1.08942 | 36.52505 | 24464 ft | 401 kts | 282° |
| 2026-04-27 06:44 | -1.08335 | 36.49773 | 24877 ft | 403 kts | 282° |
| 2026-04-27 06:44 | -1.07733 | 36.47061 | 25269 ft | 406 kts | 282° |
| 2026-04-27 06:45 | -1.07119 | 36.44298 | 25657 ft | 408 kts | 282° |
| 2026-04-27 06:45 | -1.06502 | 36.41519 | 26034 ft | 411 kts | 282° |
| 2026-04-27 06:45 | -1.05880 | 36.38716 | 26402 ft | 413 kts | 282° |
| 2026-04-27 06:45 | -1.05255 | 36.35902 | 26759 ft | 416 kts | 282° |
| 2026-04-27 06:46 | -1.04625 | 36.33066 | 27104 ft | 418 kts | 282° |
| 2026-04-27 06:46 | -1.03997 | 36.30220 | 27444 ft | 420 kts | 281° |
| 2026-04-27 06:46 | -1.03634 | 36.27321 | 27760 ft | 422 kts | 271° |
| 2026-04-27 06:46 | -1.03756 | 36.24386 | 28082 ft | 424 kts | 266° |
| 2026-04-27 06:47 | -1.04025 | 36.21440 | 28393 ft | 427 kts | 265° |
| 2026-04-27 06:47 | -1.04117 | 36.20480 | 28492 ft | 427 kts | 265° |
| 2026-04-27 06:47 | -1.04541 | 36.15537 | 28982 ft | 431 kts | 266° |
| 2026-04-27 06:47 | -1.04523 | 36.12544 | 29264 ft | 433 kts | 276° |
| 2026-04-27 06:48 | -1.04035 | 36.09568 | 29544 ft | 435 kts | 281° |
| 2026-04-27 06:48 | -1.03366 | 36.06614 | 29819 ft | 437 kts | 283° |
| 2026-04-27 06:48 | -1.02785 | 36.03623 | 30184 ft | 436 kts | 279° |
| 2026-04-27 06:48 | -1.02213 | 36.00656 | 30583 ft | 435 kts | 282° |
| 2026-04-27 06:49 | -1.01490 | 35.97720 | 30926 ft | 434 kts | 284° |
| 2026-04-27 06:49 | -1.00699 | 35.94806 | 31278 ft | 434 kts | 285° |
| 2026-04-27 06:49 | -0.99888 | 35.91906 | 31622 ft | 433 kts | 285° |
| 2026-04-27 06:49 | -0.99065 | 35.89016 | 31959 ft | 432 kts | 285° |
| 2026-04-27 06:50 | -0.98232 | 35.86129 | 32290 ft | 432 kts | 286° |
| 2026-04-27 06:50 | -0.97394 | 35.83252 | 32615 ft | 431 kts | 286° |
| 2026-04-27 06:50 | -0.96550 | 35.80371 | 32934 ft | 431 kts | 286° |
| 2026-04-27 06:50 | -0.95716 | 35.77538 | 33243 ft | 430 kts | 286° |
| 2026-04-27 06:51 | -0.94869 | 35.74672 | 33550 ft | 429 kts | 286° |
| 2026-04-27 06:51 | -0.94024 | 35.71816 | 33852 ft | 429 kts | 286° |
| 2026-04-27 06:51 | -0.93175 | 35.68953 | 34148 ft | 428 kts | 286° |
| 2026-04-27 06:51 | -0.92330 | 35.66104 | 34438 ft | 428 kts | 286° |
| 2026-04-27 06:52 | -0.91484 | 35.63254 | 34722 ft | 427 kts | 286° |
| 2026-04-27 06:52 | -0.90640 | 35.60413 | 35001 ft | 426 kts | 286° |
| 2026-04-27 06:52 | -0.89797 | 35.57575 | 35274 ft | 426 kts | 286° |
| 2026-04-27 06:52 | -0.88953 | 35.54735 | 35541 ft | 425 kts | 286° |
| 2026-04-27 06:53 | -0.88113 | 35.51907 | 35802 ft | 425 kts | 286° |
| 2026-04-27 06:53 | -0.87271 | 35.49072 | 35989 ft | 426 kts | 286° |
| 2026-04-27 06:53 | -0.85866 | 35.44342 | 35994 ft | 428 kts | 286° |
| 2026-04-27 06:54 | -0.84174 | 35.38656 | 35996 ft | 424 kts | 286° |
| 2026-04-27 06:54 | -0.82215 | 35.32091 | 35997 ft | 424 kts | 287° |
| 2026-04-27 06:55 | -0.80802 | 35.27356 | 35996 ft | 425 kts | 286° |
| 2026-04-27 06:55 | -0.79120 | 35.21708 | 35997 ft | 424 kts | 286° |
| 2026-04-27 06:56 | -0.77437 | 35.16054 | 35997 ft | 424 kts | 286° |
| 2026-04-27 06:56 | -0.75754 | 35.10396 | 35997 ft | 424 kts | 286° |
| 2026-04-27 06:57 | -0.74082 | 35.04776 | 35997 ft | 424 kts | 286° |
| 2026-04-27 06:57 | -0.72483 | 34.99401 | 35998 ft | 424 kts | 286° |
| 2026-04-27 06:58 | -0.69961 | 34.90918 | 35997 ft | 424 kts | 286° |
| 2026-04-27 06:59 | -0.68281 | 34.85267 | 35997 ft | 424 kts | 286° |
| 2026-04-27 06:59 | -0.66597 | 34.79603 | 35997 ft | 424 kts | 286° |
| 2026-04-27 07:00 | -0.64917 | 34.73951 | 35996 ft | 424 kts | 286° |
| 2026-04-27 07:00 | -0.63236 | 34.68294 | 35997 ft | 424 kts | 286° |
| 2026-04-27 07:01 | -0.61555 | 34.62638 | 35997 ft | 424 kts | 286° |
| 2026-04-27 07:01 | -0.59898 | 34.57022 | 35997 ft | 424 kts | 285° |
| 2026-04-27 07:02 | -0.58328 | 34.51345 | 35997 ft | 424 kts | 285° |
| 2026-04-27 07:02 | -0.56767 | 34.45660 | 35997 ft | 424 kts | 285° |
| 2026-04-27 07:03 | -0.55203 | 34.39972 | 35997 ft | 424 kts | 285° |
| 2026-04-27 07:03 | -0.53638 | 34.34287 | 35997 ft | 424 kts | 285° |
| 2026-04-27 07:04 | -0.52074 | 34.28603 | 35997 ft | 424 kts | 285° |
| 2026-04-27 07:04 | -0.50508 | 34.22914 | 35997 ft | 424 kts | 285° |
| 2026-04-27 07:05 | -0.48953 | 34.17262 | 35997 ft | 424 kts | 285° |
| 2026-04-27 07:05 | -0.47387 | 34.11570 | 35997 ft | 424 kts | 285° |
| 2026-04-27 07:06 | -0.45824 | 34.05890 | 35997 ft | 424 kts | 285° |
| 2026-04-27 07:06 | -0.44259 | 34.00206 | 35997 ft | 424 kts | 285° |
| 2026-04-27 07:07 | -0.42635 | 33.94537 | 35997 ft | 424 kts | 288° |
| 2026-04-27 07:07 | -0.40757 | 33.88980 | 35997 ft | 424 kts | 288° |
| 2026-04-27 07:08 | -0.38880 | 33.83392 | 35997 ft | 424 kts | 288° |
| 2026-04-27 07:08 | -0.37013 | 33.77795 | 35997 ft | 424 kts | 288° |
| 2026-04-27 07:09 | -0.35149 | 33.72189 | 35997 ft | 424 kts | 288° |
| 2026-04-27 07:09 | -0.33293 | 33.66596 | 35997 ft | 424 kts | 288° |
| 2026-04-27 07:10 | -0.31445 | 33.61026 | 35997 ft | 424 kts | 288° |
| 2026-04-27 07:10 | -0.29589 | 33.55426 | 35997 ft | 424 kts | 288° |
| 2026-04-27 07:11 | -0.27733 | 33.49833 | 35997 ft | 424 kts | 288° |
| 2026-04-27 07:11 | -0.25902 | 33.44222 | 35997 ft | 424 kts | 287° |
| 2026-04-27 07:12 | -0.24152 | 33.38597 | 35997 ft | 424 kts | 287° |
| 2026-04-27 07:12 | -0.22403 | 33.32965 | 35997 ft | 424 kts | 287° |
| 2026-04-27 07:13 | -0.20654 | 33.27336 | 35997 ft | 424 kts | 287° |
| 2026-04-27 07:13 | -0.18904 | 33.21707 | 35996 ft | 424 kts | 287° |
| 2026-04-27 07:14 | -0.17155 | 33.16078 | 35997 ft | 424 kts | 287° |
| 2026-04-27 07:14 | -0.15416 | 33.10484 | 35997 ft | 424 kts | 287° |
| 2026-04-27 07:15 | -0.13666 | 33.04855 | 35997 ft | 424 kts | 287° |
| 2026-04-27 07:15 | -0.11916 | 32.99226 | 35997 ft | 424 kts | 287° |
| 2026-04-27 07:16 | -0.10167 | 32.93598 | 35996 ft | 424 kts | 287° |
| 2026-04-27 07:16 | -0.08416 | 32.87966 | 35997 ft | 424 kts | 287° |
| 2026-04-27 07:17 | -0.06667 | 32.82338 | 35997 ft | 424 kts | 287° |
| 2026-04-27 07:17 | -0.04926 | 32.76738 | 35997 ft | 424 kts | 287° |
| 2026-04-27 07:18 | -0.03179 | 32.71115 | 35997 ft | 424 kts | 287° |
| 2026-04-27 07:18 | -0.01425 | 32.65467 | 35997 ft | 424 kts | 287° |
| 2026-04-27 07:19 | 0.00326 | 32.59833 | 35997 ft | 424 kts | 287° |
| 2026-04-27 07:19 | 0.02074 | 32.54203 | 35997 ft | 424 kts | 287° |
| 2026-04-27 07:20 | 0.03809 | 32.48614 | 35997 ft | 424 kts | 287° |
| 2026-04-27 07:20 | 0.05256 | 32.42904 | 35996 ft | 423 kts | 279° |
| 2026-04-27 07:21 | 0.05829 | 32.37056 | 35997 ft | 423 kts | 274° |
| 2026-04-27 07:21 | 0.06177 | 32.31190 | 35997 ft | 423 kts | 274° |
| 2026-04-27 07:22 | 0.06538 | 32.25326 | 35997 ft | 423 kts | 274° |
| 2026-04-27 07:22 | 0.06910 | 32.19456 | 35997 ft | 423 kts | 274° |
| 2026-04-27 07:23 | 0.07286 | 32.13587 | 35997 ft | 423 kts | 274° |
| 2026-04-27 07:23 | 0.07665 | 32.07732 | 35997 ft | 423 kts | 274° |
| 2026-04-27 07:24 | 0.08043 | 32.01898 | 35997 ft | 423 kts | 274° |
| 2026-04-27 07:24 | 0.08424 | 31.96027 | 35997 ft | 423 kts | 274° |
| 2026-04-27 07:25 | 0.08804 | 31.90159 | 35997 ft | 423 kts | 274° |
| 2026-04-27 07:25 | 0.09184 | 31.84297 | 35997 ft | 423 kts | 274° |
| 2026-04-27 07:26 | 0.09564 | 31.78426 | 35997 ft | 423 kts | 274° |
| 2026-04-27 07:26 | 0.09944 | 31.72585 | 35997 ft | 423 kts | 274° |
| 2026-04-27 07:27 | 0.10325 | 31.66721 | 35997 ft | 423 kts | 274° |
| 2026-04-27 07:27 | 0.10703 | 31.60856 | 35997 ft | 423 kts | 274° |
| 2026-04-27 07:28 | 0.11079 | 31.54994 | 35997 ft | 423 kts | 274° |
| 2026-04-27 07:28 | 0.11454 | 31.49114 | 35997 ft | 423 kts | 274° |
| 2026-04-27 07:29 | 0.11825 | 31.43293 | 35997 ft | 423 kts | 274° |
| 2026-04-27 07:29 | 0.12202 | 31.37423 | 35997 ft | 423 kts | 274° |
| 2026-04-27 07:30 | 0.12588 | 31.31558 | 35997 ft | 423 kts | 274° |
| 2026-04-27 07:30 | 0.12976 | 31.25695 | 35997 ft | 423 kts | 274° |
| 2026-04-27 07:31 | 0.13362 | 31.19826 | 35997 ft | 423 kts | 274° |
| 2026-04-27 07:31 | 0.13746 | 31.13967 | 35997 ft | 423 kts | 274° |
| 2026-04-27 07:32 | 0.14130 | 31.08104 | 35997 ft | 423 kts | 274° |
| 2026-04-27 07:32 | 0.14512 | 31.02278 | 35997 ft | 423 kts | 274° |
| 2026-04-27 07:33 | 0.14895 | 30.96417 | 35997 ft | 423 kts | 274° |
| 2026-04-27 07:33 | 0.15278 | 30.90552 | 35997 ft | 423 kts | 274° |
| 2026-04-27 07:34 | 0.15662 | 30.84684 | 35997 ft | 423 kts | 274° |
| 2026-04-27 07:34 | 0.16044 | 30.78823 | 35997 ft | 423 kts | 274° |
| 2026-04-27 07:35 | 0.16424 | 30.72992 | 35997 ft | 423 kts | 274° |
| 2026-04-27 07:35 | 0.16806 | 30.67124 | 35997 ft | 423 kts | 274° |
| 2026-04-27 07:36 | 0.17191 | 30.61253 | 35997 ft | 423 kts | 274° |
| 2026-04-27 07:36 | 0.17548 | 30.55392 | 35997 ft | 423 kts | 274° |
| 2026-04-27 07:37 | 0.17890 | 30.49528 | 35997 ft | 423 kts | 274° |
| 2026-04-27 07:37 | 0.18229 | 30.43668 | 35996 ft | 423 kts | 274° |
| 2026-04-27 07:38 | 0.18568 | 30.37798 | 35997 ft | 423 kts | 274° |
| 2026-04-27 07:38 | 0.18904 | 30.31971 | 35997 ft | 423 kts | 274° |
| 2026-04-27 07:39 | 0.19241 | 30.26107 | 35997 ft | 423 kts | 274° |
| 2026-04-27 07:39 | 0.19579 | 30.20237 | 35997 ft | 423 kts | 274° |
| 2026-04-27 07:40 | 0.19917 | 30.14358 | 35997 ft | 423 kts | 274° |
| 2026-04-27 07:40 | 0.20197 | 30.09487 | 35997 ft | 423 kts | 274° |
| 2026-04-27 07:41 | 0.20588 | 30.02674 | 35997 ft | 423 kts | 274° |
| 2026-04-27 07:41 | 0.20924 | 29.96807 | 35997 ft | 423 kts | 274° |
| 2026-04-27 07:42 | 0.21206 | 29.91930 | 35997 ft | 423 kts | 274° |
| 2026-04-27 07:42 | 0.21561 | 29.86063 | 35997 ft | 423 kts | 274° |
| 2026-04-27 07:43 | 0.21920 | 29.80199 | 35998 ft | 422 kts | 274° |
| 2026-04-27 07:43 | 0.22276 | 29.74344 | 35997 ft | 422 kts | 274° |
| 2026-04-27 07:44 | 0.22632 | 29.68478 | 35997 ft | 422 kts | 274° |
| 2026-04-27 07:44 | 0.22987 | 29.62621 | 35997 ft | 422 kts | 274° |
| 2026-04-27 07:45 | 0.23342 | 29.56752 | 35997 ft | 422 kts | 274° |
| 2026-04-27 07:45 | 0.23696 | 29.50895 | 35997 ft | 422 kts | 274° |
| 2026-04-27 07:46 | 0.24052 | 29.45032 | 35997 ft | 422 kts | 274° |
| 2026-04-27 07:46 | 0.24466 | 29.39172 | 35997 ft | 422 kts | 275° |
| 2026-04-27 07:47 | 0.24902 | 29.33343 | 35997 ft | 422 kts | 274° |
| 2026-04-27 07:47 | 0.25261 | 29.27476 | 35996 ft | 422 kts | 274° |
| 2026-04-27 07:48 | 0.25617 | 29.21620 | 35997 ft | 422 kts | 274° |
| 2026-04-27 07:48 | 0.25973 | 29.15762 | 35997 ft | 422 kts | 274° |
| 2026-04-27 07:49 | 0.26331 | 29.09899 | 35997 ft | 422 kts | 274° |
| 2026-04-27 07:49 | 0.26687 | 29.04075 | 35997 ft | 422 kts | 274° |
| 2026-04-27 07:50 | 0.27045 | 28.98215 | 35997 ft | 422 kts | 274° |
| 2026-04-27 07:50 | 0.27404 | 28.92354 | 35997 ft | 422 kts | 274° |
| 2026-04-27 07:51 | 0.27763 | 28.86490 | 35997 ft | 422 kts | 274° |
| 2026-04-27 07:51 | 0.28121 | 28.80623 | 35997 ft | 422 kts | 274° |
| 2026-04-27 07:52 | 0.28477 | 28.74798 | 35997 ft | 422 kts | 274° |
| 2026-04-27 07:52 | 0.28836 | 28.68938 | 35997 ft | 422 kts | 274° |
| 2026-04-27 07:53 | 0.29193 | 28.63081 | 35997 ft | 422 kts | 274° |
| 2026-04-27 07:53 | 0.29552 | 28.57219 | 35997 ft | 422 kts | 274° |
| 2026-04-27 07:54 | 0.29909 | 28.51363 | 35997 ft | 422 kts | 274° |
| 2026-04-27 07:54 | 0.30267 | 28.45506 | 35996 ft | 422 kts | 274° |
| 2026-04-27 07:55 | 0.30623 | 28.39676 | 35997 ft | 422 kts | 274° |
| 2026-04-27 07:55 | 0.30981 | 28.33810 | 35997 ft | 422 kts | 274° |
| 2026-04-27 07:56 | 0.31338 | 28.27949 | 35997 ft | 422 kts | 274° |
| 2026-04-27 07:56 | 0.31695 | 28.22089 | 35997 ft | 422 kts | 274° |
| 2026-04-27 07:57 | 0.32052 | 28.16231 | 35997 ft | 422 kts | 274° |
| 2026-04-27 07:57 | 0.32406 | 28.10416 | 35997 ft | 422 kts | 274° |
| 2026-04-27 07:58 | 0.32762 | 28.04551 | 35997 ft | 422 kts | 274° |
| 2026-04-27 07:58 | 0.33118 | 27.98697 | 35997 ft | 422 kts | 274° |
| 2026-04-27 07:59 | 0.33478 | 27.92836 | 35997 ft | 422 kts | 274° |
| 2026-04-27 07:59 | 0.34029 | 27.84052 | 35997 ft | 422 kts | 274° |
| 2026-04-27 08:00 | 0.34393 | 27.78190 | 35996 ft | 422 kts | 274° |
| 2026-04-27 08:00 | 0.34756 | 27.72325 | 35997 ft | 422 kts | 274° |
| 2026-04-27 08:01 | 0.35115 | 27.66502 | 35997 ft | 422 kts | 274° |
| 2026-04-27 08:01 | 0.35476 | 27.60649 | 35997 ft | 422 kts | 274° |
| 2026-04-27 08:02 | 0.35837 | 27.54799 | 35997 ft | 422 kts | 274° |
| 2026-04-27 08:02 | 0.36198 | 27.48945 | 35997 ft | 422 kts | 274° |
| 2026-04-27 08:03 | 0.36559 | 27.43087 | 35997 ft | 422 kts | 274° |
| 2026-04-27 08:03 | 0.36920 | 27.37236 | 35997 ft | 422 kts | 274° |
| 2026-04-27 08:04 | 0.37281 | 27.31378 | 35997 ft | 422 kts | 274° |
| 2026-04-27 08:04 | 0.37641 | 27.25522 | 35997 ft | 422 kts | 274° |
| 2026-04-27 08:05 | 0.38002 | 27.19663 | 35997 ft | 422 kts | 274° |
| 2026-04-27 08:05 | 0.38362 | 27.13806 | 35997 ft | 422 kts | 274° |
| 2026-04-27 08:06 | 0.38722 | 27.07957 | 35997 ft | 422 kts | 274° |
| 2026-04-27 08:06 | 0.39080 | 27.02141 | 35997 ft | 422 kts | 274° |
| 2026-04-27 08:07 | 0.39440 | 26.96286 | 35997 ft | 422 kts | 274° |
| 2026-04-27 08:07 | 0.39800 | 26.90437 | 35997 ft | 422 kts | 274° |
| 2026-04-27 08:08 | 0.40160 | 26.84579 | 35997 ft | 422 kts | 274° |
| 2026-04-27 08:08 | 0.40521 | 26.78715 | 35997 ft | 422 kts | 274° |
| 2026-04-27 08:09 | 0.40880 | 26.72864 | 35997 ft | 422 kts | 274° |
| 2026-04-27 08:09 | 0.41238 | 26.67047 | 35997 ft | 422 kts | 274° |
| 2026-04-27 08:10 | 0.41597 | 26.61199 | 35997 ft | 422 kts | 274° |
| 2026-04-27 08:10 | 0.41956 | 26.55349 | 35997 ft | 422 kts | 274° |
| 2026-04-27 08:11 | 0.42315 | 26.49494 | 35997 ft | 422 kts | 274° |
| 2026-04-27 08:11 | 0.42675 | 26.43632 | 35997 ft | 422 kts | 274° |
| 2026-04-27 08:12 | 0.43033 | 26.37780 | 35997 ft | 422 kts | 274° |
| 2026-04-27 08:12 | 0.43389 | 26.31962 | 35997 ft | 422 kts | 274° |
| 2026-04-27 08:13 | 0.43746 | 26.26113 | 35997 ft | 422 kts | 274° |
| 2026-04-27 08:13 | 0.44105 | 26.20259 | 35997 ft | 422 kts | 274° |
| 2026-04-27 08:14 | 0.44471 | 26.14409 | 35997 ft | 422 kts | 274° |
| 2026-04-27 08:14 | 0.44839 | 26.08560 | 35997 ft | 422 kts | 274° |
| 2026-04-27 08:15 | 0.45205 | 26.02710 | 35997 ft | 422 kts | 274° |
| 2026-04-27 08:15 | 0.45570 | 25.96856 | 35997 ft | 422 kts | 274° |
| 2026-04-27 08:16 | 0.45934 | 25.91010 | 35997 ft | 422 kts | 274° |
| 2026-04-27 08:16 | 0.46298 | 25.85156 | 35997 ft | 422 kts | 274° |
| 2026-04-27 08:17 | 0.46659 | 25.79341 | 35997 ft | 422 kts | 274° |
| 2026-04-27 08:17 | 0.47022 | 25.73489 | 35997 ft | 422 kts | 274° |
| 2026-04-27 08:18 | 0.47386 | 25.67637 | 35997 ft | 422 kts | 274° |
| 2026-04-27 08:18 | 0.47749 | 25.61781 | 35997 ft | 422 kts | 274° |
| 2026-04-27 08:19 | 0.48111 | 25.55935 | 35997 ft | 422 kts | 274° |
| 2026-04-27 08:19 | 0.48473 | 25.50088 | 35997 ft | 422 kts | 274° |
| 2026-04-27 08:20 | 0.48835 | 25.44238 | 35997 ft | 422 kts | 274° |
| 2026-04-27 08:20 | 0.49193 | 25.38427 | 35997 ft | 422 kts | 274° |
| 2026-04-27 08:21 | 0.49626 | 25.32574 | 35997 ft | 422 kts | 278° |
| 2026-04-27 08:21 | 0.50864 | 25.26838 | 35997 ft | 422 kts | 283° |
| 2026-04-27 08:22 | 0.52244 | 25.21134 | 35997 ft | 422 kts | 283° |
| 2026-04-27 08:22 | 0.53630 | 25.15435 | 35997 ft | 422 kts | 284° |
| 2026-04-27 08:23 | 0.55020 | 25.09737 | 35996 ft | 422 kts | 284° |
| 2026-04-27 08:23 | 0.56404 | 25.04070 | 35997 ft | 422 kts | 284° |
| 2026-04-27 08:24 | 0.57798 | 24.98365 | 35997 ft | 422 kts | 284° |
| 2026-04-27 08:24 | 0.59191 | 24.92663 | 35997 ft | 422 kts | 284° |
| 2026-04-27 08:25 | 0.60584 | 24.86965 | 35997 ft | 422 kts | 284° |
| 2026-04-27 08:25 | 0.61977 | 24.81262 | 35997 ft | 422 kts | 284° |
| 2026-04-27 08:26 | 0.63371 | 24.75558 | 35997 ft | 422 kts | 284° |
| 2026-04-27 08:26 | 0.64526 | 24.70825 | 35997 ft | 422 kts | 284° |
| 2026-04-27 08:27 | 0.65919 | 24.65121 | 35997 ft | 422 kts | 284° |
| 2026-04-27 08:27 | 0.67537 | 24.58491 | 35997 ft | 422 kts | 284° |
| 2026-04-27 08:28 | 0.68703 | 24.53720 | 35997 ft | 422 kts | 284° |
| 2026-04-27 08:28 | 0.70114 | 24.48065 | 35997 ft | 422 kts | 284° |
| 2026-04-27 08:29 | 0.71535 | 24.42364 | 35997 ft | 422 kts | 284° |
| 2026-04-27 08:29 | 0.72951 | 24.36669 | 35997 ft | 422 kts | 284° |
| 2026-04-27 08:30 | 0.74366 | 24.30978 | 35997 ft | 422 kts | 284° |
| 2026-04-27 08:30 | 0.75782 | 24.25276 | 35997 ft | 422 kts | 284° |
| 2026-04-27 08:31 | 0.77195 | 24.19585 | 35997 ft | 422 kts | 284° |
| 2026-04-27 08:31 | 0.78600 | 24.13928 | 35997 ft | 422 kts | 284° |
| 2026-04-27 08:32 | 0.80013 | 24.08237 | 35997 ft | 422 kts | 284° |
| 2026-04-27 08:32 | 0.81426 | 24.02545 | 35997 ft | 422 kts | 284° |
| 2026-04-27 08:33 | 0.82839 | 23.96852 | 35997 ft | 422 kts | 284° |
| 2026-04-27 08:33 | 0.84251 | 23.91161 | 35997 ft | 422 kts | 284° |
| 2026-04-27 08:34 | 0.85667 | 23.85457 | 35997 ft | 422 kts | 284° |
| 2026-04-27 08:34 | 0.87071 | 23.79799 | 35997 ft | 422 kts | 284° |
| 2026-04-27 08:35 | 0.88483 | 23.74108 | 35997 ft | 422 kts | 284° |
| 2026-04-27 08:35 | 0.89894 | 23.68417 | 35997 ft | 422 kts | 284° |
| 2026-04-27 08:36 | 0.91306 | 23.62727 | 35997 ft | 422 kts | 284° |
| 2026-04-27 08:36 | 0.92719 | 23.57029 | 35997 ft | 422 kts | 284° |
| 2026-04-27 08:37 | 0.94130 | 23.51341 | 35997 ft | 422 kts | 284° |
| 2026-04-27 08:37 | 0.95543 | 23.45642 | 35997 ft | 422 kts | 284° |
| 2026-04-27 08:38 | 0.96946 | 23.39985 | 35997 ft | 422 kts | 284° |
| 2026-04-27 08:38 | 0.98357 | 23.34293 | 35997 ft | 422 kts | 284° |
| 2026-04-27 08:39 | 0.99769 | 23.28601 | 35997 ft | 422 kts | 284° |
| 2026-04-27 08:39 | 1.01179 | 23.22912 | 35997 ft | 422 kts | 284° |
| 2026-04-27 08:40 | 1.02591 | 23.17216 | 35997 ft | 422 kts | 284° |
| 2026-04-27 08:40 | 1.04003 | 23.11521 | 35997 ft | 422 kts | 284° |
| 2026-04-27 08:41 | 1.05414 | 23.05828 | 35997 ft | 422 kts | 284° |
| 2026-04-27 08:41 | 1.06815 | 23.00173 | 35997 ft | 422 kts | 284° |
| 2026-04-27 08:42 | 1.08226 | 22.94479 | 35997 ft | 422 kts | 284° |
| 2026-04-27 08:42 | 1.09636 | 22.88790 | 35997 ft | 422 kts | 284° |
| 2026-04-27 08:43 | 1.11040 | 22.83121 | 35996 ft | 422 kts | 284° |
| 2026-04-27 08:43 | 1.12450 | 22.77427 | 35997 ft | 422 kts | 284° |
| 2026-04-27 08:44 | 1.13862 | 22.71728 | 35998 ft | 422 kts | 284° |
| 2026-04-27 08:44 | 1.15270 | 22.66041 | 35997 ft | 422 kts | 284° |
| 2026-04-27 08:45 | 1.16670 | 22.60385 | 35997 ft | 422 kts | 284° |
| 2026-04-27 08:45 | 1.18080 | 22.54688 | 35997 ft | 422 kts | 284° |
| 2026-04-27 08:46 | 1.19487 | 22.49003 | 35997 ft | 422 kts | 284° |
| 2026-04-27 08:46 | 1.20897 | 22.43309 | 35998 ft | 422 kts | 284° |
| 2026-04-27 08:47 | 1.22307 | 22.37608 | 35997 ft | 422 kts | 284° |
| 2026-04-27 08:47 | 1.23715 | 22.31912 | 35997 ft | 422 kts | 284° |
| 2026-04-27 08:48 | 1.25119 | 22.26227 | 35997 ft | 422 kts | 284° |
| 2026-04-27 08:48 | 1.26519 | 22.20572 | 35997 ft | 422 kts | 284° |
| 2026-04-27 08:49 | 1.27929 | 22.14881 | 35997 ft | 421 kts | 284° |
| 2026-04-27 08:49 | 1.29338 | 22.09186 | 35997 ft | 421 kts | 284° |
| 2026-04-27 08:50 | 1.30741 | 22.03507 | 35997 ft | 421 kts | 284° |
| 2026-04-27 08:50 | 1.32147 | 21.97811 | 35997 ft | 421 kts | 284° |
| 2026-04-27 08:51 | 1.33548 | 21.92126 | 35997 ft | 421 kts | 284° |
| 2026-04-27 08:51 | 1.34943 | 21.86468 | 35997 ft | 421 kts | 284° |
| 2026-04-27 08:52 | 1.36346 | 21.80779 | 35997 ft | 421 kts | 284° |
| 2026-04-27 08:52 | 1.37746 | 21.75098 | 35997 ft | 421 kts | 284° |
| 2026-04-27 08:53 | 1.39148 | 21.69404 | 35997 ft | 421 kts | 284° |
| 2026-04-27 08:53 | 1.40549 | 21.63710 | 35997 ft | 421 kts | 284° |
| 2026-04-27 08:54 | 1.41939 | 21.58059 | 35997 ft | 421 kts | 284° |
| 2026-04-27 08:54 | 1.43341 | 21.52373 | 35997 ft | 421 kts | 284° |
| 2026-04-27 08:55 | 1.44741 | 21.46680 | 35997 ft | 421 kts | 284° |
| 2026-04-27 08:55 | 1.46136 | 21.40989 | 35997 ft | 421 kts | 284° |
| 2026-04-27 08:56 | 1.47531 | 21.35292 | 35997 ft | 421 kts | 284° |
| 2026-04-27 08:56 | 1.48922 | 21.29605 | 36013 ft | 422 kts | 284° |
| 2026-04-27 08:57 | 1.50325 | 21.23867 | 36389 ft | 425 kts | 284° |
| 2026-04-27 08:57 | 1.51018 | 21.21032 | 36668 ft | 425 kts | 284° |
| 2026-04-27 08:57 | 1.51721 | 21.18157 | 36918 ft | 425 kts | 284° |
| 2026-04-27 08:58 | 1.52423 | 21.15288 | 37167 ft | 425 kts | 284° |
| 2026-04-27 08:58 | 1.53125 | 21.12418 | 37408 ft | 425 kts | 284° |
| 2026-04-27 08:58 | 1.53827 | 21.09546 | 37643 ft | 425 kts | 284° |
| 2026-04-27 08:58 | 1.54529 | 21.06674 | 37872 ft | 425 kts | 284° |
| 2026-04-27 08:59 | 1.55233 | 21.03794 | 37986 ft | 427 kts | 284° |
| 2026-04-27 08:59 | 1.56635 | 20.98055 | 37995 ft | 426 kts | 284° |
| 2026-04-27 09:00 | 1.58038 | 20.92311 | 37997 ft | 424 kts | 284° |
| 2026-04-27 09:00 | 1.59440 | 20.86567 | 37997 ft | 425 kts | 284° |
| 2026-04-27 09:01 | 1.60840 | 20.80828 | 37997 ft | 425 kts | 284° |
| 2026-04-27 09:01 | 1.62231 | 20.75118 | 37997 ft | 425 kts | 284° |
| 2026-04-27 09:02 | 1.63630 | 20.69376 | 37997 ft | 425 kts | 284° |
| 2026-04-27 09:02 | 1.65030 | 20.63628 | 37997 ft | 425 kts | 284° |
| 2026-04-27 09:03 | 1.66435 | 20.57890 | 37997 ft | 425 kts | 284° |
| 2026-04-27 09:03 | 1.67880 | 20.52159 | 37997 ft | 425 kts | 284° |
| 2026-04-27 09:04 | 1.69319 | 20.46419 | 37997 ft | 425 kts | 284° |
| 2026-04-27 09:04 | 1.70752 | 20.40692 | 37997 ft | 425 kts | 284° |
| 2026-04-27 09:05 | 1.72176 | 20.34994 | 37997 ft | 425 kts | 284° |
| 2026-04-27 09:05 | 1.73608 | 20.29261 | 37997 ft | 425 kts | 284° |
| 2026-04-27 09:06 | 1.75040 | 20.23528 | 37997 ft | 425 kts | 284° |
| 2026-04-27 09:06 | 1.76472 | 20.17797 | 37997 ft | 425 kts | 284° |
| 2026-04-27 09:07 | 1.77902 | 20.12066 | 37997 ft | 425 kts | 284° |
| 2026-04-27 09:07 | 1.79333 | 20.06321 | 37997 ft | 425 kts | 284° |
| 2026-04-27 09:08 | 1.80762 | 20.00591 | 37997 ft | 425 kts | 284° |
| 2026-04-27 09:08 | 1.82183 | 19.94893 | 37997 ft | 425 kts | 284° |
| 2026-04-27 09:09 | 1.83592 | 19.89142 | 37997 ft | 425 kts | 284° |
| 2026-04-27 09:09 | 1.85001 | 19.83408 | 37997 ft | 425 kts | 284° |
| 2026-04-27 09:10 | 1.86402 | 19.77669 | 37997 ft | 425 kts | 284° |
| 2026-04-27 09:10 | 1.87803 | 19.71926 | 37996 ft | 425 kts | 284° |
| 2026-04-27 09:11 | 1.89201 | 19.66187 | 37997 ft | 425 kts | 284° |
| 2026-04-27 09:11 | 1.90597 | 19.60451 | 37997 ft | 425 kts | 284° |
| 2026-04-27 09:12 | 1.91993 | 19.54712 | 37997 ft | 425 kts | 284° |
| 2026-04-27 09:12 | 1.93393 | 19.48973 | 37997 ft | 425 kts | 284° |
| 2026-04-27 09:13 | 1.93844 | 19.47157 | 37997 ft | 425 kts | 284° |
| 2026-04-27 09:13 | 1.94786 | 19.43390 | 37997 ft | 425 kts | 284° |
| 2026-04-27 09:14 | 1.96210 | 19.37650 | 37997 ft | 425 kts | 284° |
| 2026-04-27 09:14 | 1.97631 | 19.31917 | 37997 ft | 425 kts | 284° |
| 2026-04-27 09:15 | 1.98820 | 19.27111 | 37997 ft | 425 kts | 284° |
| 2026-04-27 09:15 | 2.00234 | 19.21416 | 37997 ft | 425 kts | 284° |
| 2026-04-27 09:16 | 2.01645 | 19.15679 | 37997 ft | 425 kts | 284° |
| 2026-04-27 09:16 | 2.03048 | 19.09940 | 37997 ft | 425 kts | 284° |
| 2026-04-27 09:17 | 2.04447 | 19.04200 | 37997 ft | 425 kts | 284° |
| 2026-04-27 09:17 | 2.05843 | 18.98461 | 37997 ft | 425 kts | 284° |
| 2026-04-27 09:18 | 2.07241 | 18.92715 | 37997 ft | 425 kts | 284° |
| 2026-04-27 09:18 | 2.08636 | 18.86974 | 37997 ft | 425 kts | 284° |
| 2026-04-27 09:19 | 2.10023 | 18.81271 | 37997 ft | 425 kts | 284° |
| 2026-04-27 09:19 | 2.11422 | 18.75517 | 37997 ft | 425 kts | 284° |
| 2026-04-27 09:20 | 2.12816 | 18.69778 | 37997 ft | 425 kts | 284° |
| 2026-04-27 09:20 | 2.14210 | 18.64032 | 37997 ft | 425 kts | 284° |
| 2026-04-27 09:21 | 2.15597 | 18.58306 | 37997 ft | 425 kts | 284° |
| 2026-04-27 09:21 | 2.16992 | 18.52559 | 37997 ft | 425 kts | 284° |
| 2026-04-27 09:22 | 2.18408 | 18.46823 | 37997 ft | 425 kts | 284° |
| 2026-04-27 09:22 | 2.19840 | 18.41131 | 37997 ft | 425 kts | 284° |
| 2026-04-27 09:23 | 2.21279 | 18.35400 | 37997 ft | 425 kts | 284° |
| 2026-04-27 09:23 | 2.22712 | 18.29676 | 37997 ft | 425 kts | 284° |
| 2026-04-27 09:24 | 2.24146 | 18.23939 | 37997 ft | 425 kts | 284° |
| 2026-04-27 09:24 | 2.25580 | 18.18199 | 37997 ft | 425 kts | 284° |
| 2026-04-27 09:25 | 2.27015 | 18.12476 | 37997 ft | 425 kts | 284° |
| 2026-04-27 09:25 | 2.28329 | 18.06718 | 37997 ft | 424 kts | 282° |
| 2026-04-27 09:26 | 2.29533 | 18.00974 | 37997 ft | 424 kts | 282° |
| 2026-04-27 09:26 | 2.30754 | 17.95195 | 37997 ft | 424 kts | 282° |
| 2026-04-27 09:27 | 2.31982 | 17.89417 | 37997 ft | 424 kts | 282° |
| 2026-04-27 09:27 | 2.33212 | 17.83640 | 37997 ft | 424 kts | 282° |
| 2026-04-27 09:28 | 2.34449 | 17.77856 | 37997 ft | 424 kts | 282° |
| 2026-04-27 09:28 | 2.35738 | 17.72128 | 37996 ft | 425 kts | 283° |
| 2026-04-27 09:29 | 2.37073 | 17.66375 | 37997 ft | 425 kts | 283° |
| 2026-04-27 09:29 | 2.38377 | 17.60619 | 37998 ft | 424 kts | 283° |
| 2026-04-27 09:30 | 2.39676 | 17.54857 | 37997 ft | 424 kts | 283° |
| 2026-04-27 09:30 | 2.40973 | 17.49096 | 37997 ft | 424 kts | 283° |
| 2026-04-27 09:31 | 2.42267 | 17.43338 | 37997 ft | 424 kts | 283° |
| 2026-04-27 09:31 | 2.43562 | 17.37573 | 37997 ft | 424 kts | 283° |
| 2026-04-27 09:32 | 2.44846 | 17.31849 | 37997 ft | 424 kts | 283° |
| 2026-04-27 09:32 | 2.46141 | 17.26087 | 37997 ft | 424 kts | 283° |
| 2026-04-27 09:33 | 2.47435 | 17.20325 | 37996 ft | 424 kts | 283° |
| 2026-04-27 09:33 | 2.48727 | 17.14565 | 37997 ft | 424 kts | 283° |
| 2026-04-27 09:34 | 2.50021 | 17.08797 | 37997 ft | 424 kts | 283° |
| 2026-04-27 09:34 | 2.51313 | 17.03035 | 37997 ft | 424 kts | 283° |
| 2026-04-27 09:35 | 2.52595 | 16.97316 | 37997 ft | 424 kts | 283° |
| 2026-04-27 09:35 | 2.53888 | 16.91546 | 37997 ft | 424 kts | 283° |
| 2026-04-27 09:36 | 2.55180 | 16.85782 | 37997 ft | 424 kts | 283° |
| 2026-04-27 09:36 | 2.56473 | 16.80009 | 37997 ft | 424 kts | 283° |
| 2026-04-27 09:37 | 2.57756 | 16.74281 | 37997 ft | 424 kts | 283° |
| 2026-04-27 09:37 | 2.59046 | 16.68517 | 37997 ft | 424 kts | 283° |
| 2026-04-27 09:38 | 2.60337 | 16.62751 | 37997 ft | 424 kts | 283° |
| 2026-04-27 09:38 | 2.61627 | 16.56984 | 37997 ft | 424 kts | 283° |
| 2026-04-27 09:39 | 2.62910 | 16.51251 | 37997 ft | 424 kts | 283° |
| 2026-04-27 09:39 | 2.64198 | 16.45492 | 37997 ft | 424 kts | 283° |
| 2026-04-27 09:40 | 2.65486 | 16.39728 | 37997 ft | 424 kts | 283° |
| 2026-04-27 09:40 | 2.66775 | 16.33966 | 37997 ft | 424 kts | 283° |
| 2026-04-27 09:41 | 2.68061 | 16.28207 | 37997 ft | 424 kts | 283° |
| 2026-04-27 09:41 | 2.69350 | 16.22440 | 37997 ft | 424 kts | 283° |
| 2026-04-27 09:42 | 2.70638 | 16.16674 | 37998 ft | 424 kts | 283° |
| 2026-04-27 09:42 | 2.71925 | 16.10904 | 37997 ft | 424 kts | 283° |
| 2026-04-27 09:43 | 2.73205 | 16.05172 | 37997 ft | 424 kts | 283° |
| 2026-04-27 09:43 | 2.74124 | 16.01054 | 37997 ft | 424 kts | 283° |
| 2026-04-27 09:44 | 2.75306 | 15.95754 | 37997 ft | 424 kts | 283° |
| 2026-04-27 09:44 | 2.76590 | 15.89994 | 37997 ft | 424 kts | 283° |
| 2026-04-27 09:45 | 2.77873 | 15.84231 | 37997 ft | 424 kts | 283° |
| 2026-04-27 09:45 | 2.79154 | 15.78468 | 37995 ft | 424 kts | 283° |
| 2026-04-27 09:46 | 2.80440 | 15.72708 | 37997 ft | 424 kts | 283° |
| 2026-04-27 09:46 | 2.81733 | 15.66946 | 37997 ft | 424 kts | 283° |
| 2026-04-27 09:47 | 2.83013 | 15.61226 | 37997 ft | 424 kts | 283° |
| 2026-04-27 09:47 | 2.84299 | 15.55468 | 37997 ft | 424 kts | 283° |
| 2026-04-27 09:48 | 2.85584 | 15.49700 | 37997 ft | 424 kts | 283° |
| 2026-04-27 09:48 | 2.86862 | 15.43959 | 37997 ft | 424 kts | 283° |
| 2026-04-27 09:49 | 2.88145 | 15.38196 | 37997 ft | 424 kts | 283° |
| 2026-04-27 09:49 | 2.89430 | 15.32432 | 37997 ft | 424 kts | 283° |
| 2026-04-27 09:50 | 2.90716 | 15.26655 | 37997 ft | 424 kts | 283° |
| 2026-04-27 09:50 | 2.91997 | 15.20897 | 37997 ft | 424 kts | 283° |
| 2026-04-27 09:51 | 2.93278 | 15.15137 | 37997 ft | 424 kts | 283° |
| 2026-04-27 09:51 | 2.94560 | 15.09369 | 37997 ft | 424 kts | 283° |
| 2026-04-27 09:52 | 2.95833 | 15.03641 | 37997 ft | 424 kts | 283° |
| 2026-04-27 09:52 | 2.97113 | 14.97881 | 37996 ft | 424 kts | 283° |
| 2026-04-27 09:53 | 2.98392 | 14.92118 | 37997 ft | 424 kts | 283° |
| 2026-04-27 09:53 | 2.99672 | 14.86351 | 37997 ft | 424 kts | 283° |
| 2026-04-27 09:54 | 3.00951 | 14.80591 | 37994 ft | 424 kts | 283° |
| 2026-04-27 09:54 | 3.02229 | 14.74830 | 37997 ft | 424 kts | 283° |
| 2026-04-27 09:55 | 3.03506 | 14.69069 | 37997 ft | 424 kts | 283° |
| 2026-04-27 09:55 | 3.05424 | 14.60421 | 37997 ft | 424 kts | 283° |
| 2026-04-27 09:56 | 3.06693 | 14.54694 | 37997 ft | 424 kts | 283° |
| 2026-04-27 09:56 | 3.07970 | 14.48926 | 37997 ft | 424 kts | 283° |
| 2026-04-27 09:57 | 3.09248 | 14.43160 | 37997 ft | 424 kts | 283° |
| 2026-04-27 09:57 | 3.10524 | 14.37392 | 37997 ft | 424 kts | 283° |
| 2026-04-27 09:58 | 3.11791 | 14.31657 | 37996 ft | 424 kts | 283° |
| 2026-04-27 09:58 | 3.13064 | 14.25891 | 37997 ft | 424 kts | 283° |
| 2026-04-27 09:59 | 3.14339 | 14.20127 | 37997 ft | 424 kts | 283° |
| 2026-04-27 09:59 | 3.15622 | 14.14357 | 37997 ft | 424 kts | 283° |
| 2026-04-27 10:00 | 3.16902 | 14.08597 | 37997 ft | 424 kts | 283° |
| 2026-04-27 10:00 | 3.17962 | 14.03814 | 37997 ft | 424 kts | 283° |
| 2026-04-27 10:01 | 3.19238 | 13.98046 | 37997 ft | 424 kts | 283° |
| 2026-04-27 10:01 | 3.20504 | 13.92318 | 37997 ft | 424 kts | 283° |
| 2026-04-27 10:02 | 3.21784 | 13.86522 | 37997 ft | 424 kts | 283° |
| 2026-04-27 10:02 | 3.23052 | 13.80793 | 37997 ft | 424 kts | 283° |
| 2026-04-27 10:03 | 3.24325 | 13.75028 | 37997 ft | 424 kts | 283° |
| 2026-04-27 10:03 | 3.25597 | 13.69260 | 37997 ft | 424 kts | 283° |
| 2026-04-27 10:04 | 3.26865 | 13.63499 | 37997 ft | 424 kts | 283° |
| 2026-04-27 10:04 | 3.28137 | 13.57738 | 37997 ft | 424 kts | 283° |
| 2026-04-27 10:05 | 3.29417 | 13.51979 | 37997 ft | 424 kts | 283° |
| 2026-04-27 10:05 | 3.30690 | 13.46253 | 37997 ft | 424 kts | 283° |
| 2026-04-27 10:06 | 3.31966 | 13.40491 | 37997 ft | 424 kts | 283° |
| 2026-04-27 10:06 | 3.33241 | 13.34724 | 37997 ft | 424 kts | 283° |
| 2026-04-27 10:07 | 3.34514 | 13.28966 | 37997 ft | 424 kts | 283° |
| 2026-04-27 10:07 | 3.35781 | 13.23235 | 37997 ft | 424 kts | 283° |
| 2026-04-27 10:08 | 3.37055 | 13.17475 | 37997 ft | 424 kts | 283° |
| 2026-04-27 10:08 | 3.38337 | 13.11671 | 37997 ft | 424 kts | 283° |
| 2026-04-27 10:09 | 3.39604 | 13.05934 | 37997 ft | 424 kts | 283° |
| 2026-04-27 10:09 | 3.40874 | 13.00177 | 37997 ft | 424 kts | 283° |
| 2026-04-27 10:10 | 3.42147 | 12.94412 | 37997 ft | 424 kts | 283° |
| 2026-04-27 10:10 | 3.43416 | 12.88651 | 37997 ft | 424 kts | 283° |
| 2026-04-27 10:11 | 3.44685 | 12.82883 | 37997 ft | 424 kts | 283° |
| 2026-04-27 10:11 | 3.45953 | 12.77113 | 37997 ft | 424 kts | 283° |
| 2026-04-27 10:12 | 3.47224 | 12.71351 | 37996 ft | 424 kts | 283° |
| 2026-04-27 10:12 | 3.48492 | 12.65625 | 37997 ft | 424 kts | 283° |
| 2026-04-27 10:13 | 3.49765 | 12.59861 | 37997 ft | 424 kts | 283° |
| 2026-04-27 10:13 | 3.51033 | 12.54100 | 37996 ft | 424 kts | 283° |
| 2026-04-27 10:14 | 3.52301 | 12.48333 | 37997 ft | 424 kts | 283° |
| 2026-04-27 10:14 | 3.53566 | 12.42570 | 37996 ft | 424 kts | 283° |
| 2026-04-27 10:15 | 3.54833 | 12.36798 | 37997 ft | 424 kts | 283° |
| 2026-04-27 10:15 | 3.56099 | 12.31036 | 37997 ft | 424 kts | 283° |
| 2026-04-27 10:16 | 3.57357 | 12.25311 | 37997 ft | 424 kts | 283° |
| 2026-04-27 10:16 | 3.58621 | 12.19550 | 37997 ft | 424 kts | 283° |
| 2026-04-27 10:17 | 3.59885 | 12.13786 | 37997 ft | 424 kts | 283° |
| 2026-04-27 10:17 | 3.61148 | 12.08021 | 37997 ft | 424 kts | 282° |
| 2026-04-27 10:18 | 3.62412 | 12.02253 | 37997 ft | 424 kts | 282° |
| 2026-04-27 10:18 | 3.63675 | 11.96484 | 37997 ft | 424 kts | 282° |
| 2026-04-27 10:19 | 3.64936 | 11.90721 | 37997 ft | 424 kts | 282° |
| 2026-04-27 10:19 | 3.66199 | 11.84953 | 37997 ft | 424 kts | 282° |
| 2026-04-27 10:20 | 3.67450 | 11.79231 | 37997 ft | 424 kts | 282° |
| 2026-04-27 10:20 | 3.68711 | 11.73460 | 37997 ft | 424 kts | 282° |
| 2026-04-27 10:21 | 3.69969 | 11.67692 | 37997 ft | 424 kts | 282° |
| 2026-04-27 10:21 | 3.71224 | 11.61932 | 37997 ft | 424 kts | 282° |
| 2026-04-27 10:22 | 3.72484 | 11.56168 | 37997 ft | 424 kts | 282° |
| 2026-04-27 10:22 | 3.73530 | 11.50360 | 37997 ft | 423 kts | 279° |
| 2026-04-27 10:23 | 3.74368 | 11.44522 | 37997 ft | 423 kts | 278° |
| 2026-04-27 10:23 | 3.75188 | 11.38730 | 37997 ft | 423 kts | 278° |
| 2026-04-27 10:24 | 3.76033 | 11.32889 | 37996 ft | 423 kts | 279° |
| 2026-04-27 10:24 | 3.76887 | 11.27060 | 37997 ft | 423 kts | 279° |
| 2026-04-27 10:25 | 3.77734 | 11.21304 | 37997 ft | 423 kts | 279° |
| 2026-04-27 10:25 | 3.78599 | 11.15475 | 37997 ft | 423 kts | 279° |
| 2026-04-27 10:26 | 3.79464 | 11.09645 | 37997 ft | 423 kts | 279° |
| 2026-04-27 10:26 | 3.80328 | 11.03817 | 37997 ft | 423 kts | 279° |
| 2026-04-27 10:27 | 3.81193 | 10.97985 | 37997 ft | 423 kts | 279° |
| 2026-04-27 10:27 | 3.82056 | 10.92156 | 37997 ft | 423 kts | 279° |
| 2026-04-27 10:28 | 3.82920 | 10.86322 | 37997 ft | 423 kts | 279° |
| 2026-04-27 10:28 | 3.83783 | 10.80498 | 37997 ft | 423 kts | 279° |
| 2026-04-27 10:29 | 3.84645 | 10.74668 | 37997 ft | 423 kts | 279° |
| 2026-04-27 10:29 | 3.85509 | 10.68827 | 37997 ft | 423 kts | 279° |
| 2026-04-27 10:30 | 3.86103 | 10.64808 | 37997 ft | 423 kts | 279° |